createdAt,value
2023-02-10T00:01:25.221Z,47.17
2023-02-10T00:03:52.796Z,50.20
2023-02-10T00:06:23.018Z,47.77
2023-02-10T00:08:52.933Z,49.97
2023-02-10T00:11:20.087Z,48.73
2023-02-10T00:13:47.440Z,48.33
2023-02-10T00:16:16.187Z,47.50
2023-02-10T00:18:43.507Z,47.47
2023-02-10T00:21:17.207Z,45.37
2023-02-10T00:23:44.339Z,46.53
2023-02-10T00:26:13.861Z,44.03
2023-02-10T00:28:40.669Z,47.63
2023-02-10T00:31:10.542Z,49.50
2023-02-10T00:33:37.570Z,47.87
2023-02-10T00:36:10.708Z,51.33
2023-02-10T00:38:38.678Z,47.13
2023-02-10T00:41:07.594Z,51.90
2023-02-10T00:43:34.674Z,54.13
2023-02-10T00:46:01.767Z,51.57
2023-02-10T00:48:28.648Z,48.43
2023-02-10T00:50:55.700Z,51.80
2023-02-10T00:53:22.529Z,53.60
2023-02-10T00:55:49.547Z,46.33
2023-02-10T00:58:16.598Z,49.30
2023-02-10T01:00:43.599Z,45.93
2023-02-10T01:03:10.604Z,48.00
2023-02-10T01:05:37.454Z,45.40
2023-02-10T01:08:04.830Z,47.00
2023-02-10T01:10:36.168Z,41.57
2023-02-10T01:13:05.719Z,43.80
2023-02-10T01:15:32.660Z,44.20
2023-02-10T01:17:59.568Z,42.73
2023-02-10T01:20:27.723Z,43.67
2023-02-10T01:22:54.639Z,50.10
2023-02-10T01:25:21.484Z,47.07
2023-02-10T01:27:48.292Z,58.50
2023-02-10T01:30:16.143Z,53.17
2023-02-10T01:32:42.945Z,52.43
2023-02-10T01:35:09.780Z,53.50
2023-02-10T01:37:38.814Z,52.53
2023-02-10T01:40:06.489Z,48.73
2023-02-10T01:42:33.283Z,50.50
2023-02-10T01:45:35.325Z,48.37
2023-02-10T01:48:02.966Z,51.00
2023-02-10T01:50:45.411Z,48.00
2023-02-10T01:53:12.961Z,46.73
2023-02-10T01:55:44.165Z,52.73
2023-02-10T01:58:14.589Z,49.70
2023-02-10T02:00:41.538Z,50.47
2023-02-10T02:03:09.034Z,45.73
2023-02-10T02:05:41.642Z,46.87
2023-02-10T02:08:25.368Z,46.07
2023-02-10T02:11:08.104Z,46.97
2023-02-10T02:14:02.033Z,43.60
2023-02-10T02:17:13.260Z,44.57
2023-02-10T02:20:38.187Z,45.43
2023-02-10T02:23:28.146Z,49.10
2023-02-10T02:27:14.752Z,48.00
2023-02-10T02:30:08.404Z,47.03
2023-02-10T02:32:45.503Z,44.60
2023-02-10T02:35:25.540Z,49.37
2023-02-10T02:37:54.008Z,45.97
2023-02-10T02:40:21.795Z,48.90
2023-02-10T02:42:49.618Z,49.83
2023-02-10T02:45:39.059Z,55.60
2023-02-10T02:48:19.634Z,51.53
2023-02-10T02:51:14.089Z,51.00
2023-02-10T02:53:59.856Z,50.70
2023-02-10T02:57:08.664Z,47.03
2023-02-10T03:00:04.548Z,50.63
2023-02-10T03:02:34.167Z,48.53
2023-02-10T03:05:01.038Z,46.40
2023-02-10T03:07:27.924Z,50.10
2023-02-10T03:09:54.822Z,46.73
2023-02-10T03:12:21.619Z,47.10
2023-02-10T03:14:48.564Z,49.13
2023-02-10T03:17:15.394Z,51.37
2023-02-10T03:19:42.274Z,49.77
2023-02-10T03:22:09.061Z,51.37
2023-02-10T03:24:35.931Z,50.43
2023-02-10T03:27:06.268Z,51.70
2023-02-10T03:29:33.126Z,47.37
2023-02-10T03:32:02.629Z,51.13
2023-02-10T03:34:29.849Z,51.10
2023-02-10T03:36:56.713Z,48.67
2023-02-10T03:39:23.563Z,53.53
2023-02-10T03:41:50.462Z,51.33
2023-02-10T03:44:17.271Z,50.10
2023-02-10T03:46:44.093Z,48.93
2023-02-10T03:49:10.905Z,43.40
2023-02-10T03:51:37.828Z,52.03
2023-02-10T03:54:04.736Z,45.13
2023-02-10T03:56:31.523Z,49.27
2023-02-10T03:59:02.244Z,45.97
2023-02-10T04:01:29.070Z,45.47
2023-02-10T04:03:55.931Z,44.23
2023-02-10T04:06:22.953Z,48.80
2023-02-10T04:08:49.937Z,46.60
2023-02-10T04:11:16.844Z,48.77
2023-02-10T04:13:43.754Z,45.83
2023-02-10T04:16:15.086Z,43.43
2023-02-10T04:18:42.886Z,47.20
2023-02-10T04:21:14.170Z,43.83
2023-02-10T04:23:41.175Z,44.30
2023-02-10T04:26:08.243Z,42.47
2023-02-10T04:28:35.204Z,46.77
2023-02-10T04:31:02.610Z,42.00
2023-02-10T04:33:30.453Z,40.53
2023-02-10T04:35:57.319Z,40.77
2023-02-10T04:38:24.909Z,37.53
2023-02-10T04:40:52.097Z,43.70
2023-02-10T04:43:19.000Z,39.57
2023-02-10T04:45:46.430Z,39.73
2023-02-10T04:48:14.965Z,41.40
2023-02-10T04:50:42.672Z,42.23
2023-02-10T04:53:10.389Z,44.37
2023-02-10T04:55:37.234Z,39.43
2023-02-10T04:58:04.283Z,43.80
2023-02-10T05:00:31.450Z,40.57
2023-02-10T05:02:58.309Z,42.77
2023-02-10T05:05:26.308Z,44.13
2023-02-10T05:07:53.634Z,41.20
2023-02-10T05:10:21.116Z,40.83
2023-02-10T05:12:48.538Z,38.17
2023-02-10T05:15:15.550Z,38.47
2023-02-10T05:17:42.519Z,35.30
2023-02-10T05:20:10.214Z,40.97
2023-02-10T05:22:38.884Z,42.17
2023-02-10T05:25:06.984Z,38.57
2023-02-10T05:27:34.185Z,41.53
2023-02-10T05:30:01.093Z,40.23
2023-02-10T05:32:27.953Z,42.03
2023-02-10T05:34:54.800Z,42.57
2023-02-10T05:37:21.655Z,37.40
2023-02-10T05:39:48.501Z,41.33
2023-02-10T05:42:15.412Z,44.67
2023-02-10T05:44:42.220Z,41.20
2023-02-10T05:47:09.032Z,39.63
2023-02-10T05:49:35.859Z,41.07
2023-02-10T05:52:02.722Z,39.77
2023-02-10T05:54:29.967Z,37.30
2023-02-10T05:56:56.965Z,39.00
2023-02-10T05:59:23.872Z,40.47
2023-02-10T06:01:50.772Z,39.33
2023-02-10T06:04:17.640Z,40.40
2023-02-10T06:06:44.661Z,38.77
2023-02-10T06:09:11.537Z,39.03
2023-02-10T06:11:38.462Z,42.90
2023-02-10T06:14:05.813Z,41.17
2023-02-10T06:16:32.637Z,45.93
2023-02-10T06:18:59.524Z,35.93
2023-02-10T06:21:26.811Z,39.43
2023-02-10T06:23:53.857Z,40.83
2023-02-10T06:26:20.748Z,37.70
2023-02-10T06:28:47.617Z,39.97
2023-02-10T06:31:14.520Z,39.83
2023-02-10T06:33:41.395Z,38.07
2023-02-10T06:36:09.548Z,42.43
2023-02-10T06:38:37.861Z,39.13
2023-02-10T06:41:06.386Z,41.03
2023-02-10T06:43:33.682Z,38.17
2023-02-10T06:46:00.575Z,39.37
2023-02-10T06:48:27.652Z,41.50
2023-02-10T06:50:54.561Z,40.93
2023-02-10T06:53:21.811Z,40.97
2023-02-10T06:55:49.422Z,40.33
2023-02-10T06:58:17.890Z,41.83
2023-02-10T07:00:44.805Z,45.10
2023-02-10T07:03:15.347Z,40.63
2023-02-10T07:05:42.198Z,43.93
2023-02-10T07:08:09.214Z,43.27
2023-02-10T07:10:36.282Z,45.37
2023-02-10T07:13:03.303Z,36.37
2023-02-10T07:15:30.230Z,40.97
2023-02-10T07:17:57.098Z,41.47
2023-02-10T07:20:24.609Z,41.77
2023-02-10T07:22:52.467Z,42.53
2023-02-10T07:25:19.895Z,38.97
2023-02-10T07:27:46.782Z,37.73
2023-02-10T07:30:14.068Z,41.53
2023-02-10T07:32:42.755Z,41.83
2023-02-10T07:35:10.374Z,42.00
2023-02-10T07:37:38.711Z,36.20
2023-02-10T07:40:06.712Z,35.53
2023-02-10T07:42:35.323Z,35.70
2023-02-10T07:45:02.890Z,33.27
2023-02-10T07:47:29.715Z,30.83
2023-02-10T07:49:56.674Z,33.97
2023-02-10T07:52:24.056Z,33.67
2023-02-10T07:54:51.216Z,29.77
2023-02-10T07:57:18.557Z,31.03
2023-02-10T07:59:45.647Z,32.50
2023-02-10T08:02:13.212Z,33.97
2023-02-10T08:04:40.056Z,30.80
2023-02-10T08:07:07.006Z,32.57
2023-02-10T08:09:33.894Z,28.27
2023-02-10T08:12:00.731Z,28.20
2023-02-10T08:14:27.768Z,31.80
2023-02-10T08:16:54.685Z,29.70
2023-02-10T08:19:21.558Z,29.63
2023-02-10T08:21:48.936Z,28.73
2023-02-10T08:24:15.806Z,29.87
2023-02-10T08:26:43.411Z,31.17
2023-02-10T08:29:10.454Z,27.00
2023-02-10T08:31:37.328Z,26.67
2023-02-10T08:34:04.435Z,26.50
2023-02-10T08:36:31.971Z,26.43
2023-02-10T08:38:58.884Z,26.23
2023-02-10T08:41:26.629Z,25.43
2023-02-10T08:43:53.459Z,26.57
2023-02-10T08:46:20.446Z,25.10
2023-02-10T08:48:47.531Z,29.23
2023-02-10T08:51:16.017Z,23.80
2023-02-10T08:53:43.032Z,25.37
2023-02-10T08:56:15.988Z,26.03
2023-02-10T08:58:42.871Z,24.37
2023-02-10T09:01:19.809Z,21.33
2023-02-10T09:03:47.324Z,23.07
2023-02-10T09:06:16.016Z,24.43
2023-02-10T09:08:44.766Z,22.90
2023-02-10T09:11:11.816Z,24.00
2023-02-10T09:13:38.742Z,24.23
2023-02-10T09:16:05.999Z,24.57
2023-02-10T09:18:33.280Z,23.03
2023-02-10T09:21:01.345Z,23.83
2023-02-10T09:23:29.173Z,23.80
2023-02-10T09:25:58.765Z,23.43
2023-02-10T09:28:27.171Z,23.80
2023-02-10T09:30:54.163Z,23.33
2023-02-10T09:33:21.295Z,22.77
2023-02-10T09:35:48.642Z,22.77
2023-02-10T09:38:15.645Z,25.27
2023-02-10T09:41:36.271Z,25.60
2023-02-10T09:44:26.625Z,24.63
2023-02-10T09:47:54.903Z,23.43
2023-02-10T09:50:45.807Z,28.40
2023-02-10T09:53:28.453Z,28.17
2023-02-10T09:56:05.709Z,27.27
2023-02-10T09:58:42.913Z,26.13
2023-02-10T10:01:22.987Z,28.77
2023-02-10T10:04:11.952Z,31.87
2023-02-10T10:06:44.162Z,32.30
2023-02-10T10:09:11.005Z,40.03
2023-02-10T10:11:50.109Z,58.53
2023-02-10T10:14:36.943Z,34.07
2023-02-10T10:17:28.353Z,35.57
2023-02-10T10:20:28.844Z,31.87
2023-02-10T10:23:30.780Z,30.37
2023-02-10T10:26:36.514Z,26.23
2023-02-10T10:29:35.817Z,23.47
2023-02-10T10:32:45.613Z,30.87
2023-02-10T10:35:25.056Z,28.20
2023-02-10T10:37:52.062Z,26.57
2023-02-10T10:40:32.408Z,27.00
2023-02-10T10:43:01.822Z,24.47
2023-02-10T10:45:31.314Z,26.83
2023-02-10T10:48:26.242Z,24.07
2023-02-10T10:50:59.066Z,28.40
2023-02-10T10:53:44.515Z,23.77
2023-02-10T10:56:38.427Z,25.57
2023-02-10T10:59:32.882Z,28.60
2023-02-10T11:01:59.966Z,26.70
2023-02-10T11:04:31.055Z,26.07
2023-02-10T11:07:00.247Z,25.63
2023-02-10T11:09:32.701Z,26.77
2023-02-10T11:12:21.664Z,25.87
2023-02-10T11:14:54.569Z,27.33
2023-02-10T11:17:31.044Z,28.40
2023-02-10T11:20:25.493Z,27.03
2023-02-10T11:23:15.867Z,25.00
2023-02-10T11:25:46.544Z,26.07
2023-02-10T11:28:20.553Z,26.87
2023-02-10T11:30:56.558Z,25.97
2023-02-10T11:33:29.293Z,26.70
2023-02-10T11:36:09.299Z,23.13
2023-02-10T11:38:37.256Z,25.23
2023-02-10T11:41:10.674Z,25.37
2023-02-10T11:43:47.649Z,25.67
2023-02-10T11:46:30.219Z,25.87
2023-02-10T11:49:04.383Z,24.30
2023-02-10T11:51:32.026Z,28.33
2023-02-10T11:54:00.385Z,27.10
2023-02-10T11:57:15.674Z,25.87
2023-02-10T11:59:48.575Z,26.97
2023-02-10T12:02:39.430Z,25.63
2023-02-10T12:05:36.292Z,23.90
2023-02-10T12:08:28.844Z,23.60
2023-02-10T12:11:14.118Z,25.50
2023-02-10T12:14:37.021Z,25.40
2023-02-10T12:17:24.627Z,26.30
2023-02-10T12:20:32.462Z,29.53
2023-02-10T12:23:44.491Z,23.87
2023-02-10T12:26:35.143Z,24.00
2023-02-10T12:29:38.428Z,26.77
2023-02-10T12:32:45.721Z,27.50
2023-02-10T12:35:56.103Z,27.23
2023-02-10T12:38:52.707Z,23.73
2023-02-10T12:41:31.370Z,25.77
2023-02-10T12:44:31.381Z,24.20
2023-02-10T12:47:22.656Z,25.33
2023-02-10T12:50:21.505Z,27.00
2023-02-10T12:52:59.880Z,23.37
2023-02-10T12:55:51.141Z,26.00
2023-02-10T12:58:27.682Z,24.60
2023-02-10T13:01:30.916Z,24.23
2023-02-10T13:04:16.235Z,23.97
2023-02-10T13:06:51.828Z,23.67
2023-02-10T13:09:39.635Z,23.30
2023-02-10T13:12:30.196Z,25.70
2023-02-10T13:15:13.557Z,28.93
2023-02-10T13:17:47.844Z,24.03
2023-02-10T13:20:46.348Z,24.80
2023-02-10T13:23:45.733Z,23.13
2023-02-10T13:26:32.498Z,24.60
2023-02-10T13:29:21.043Z,24.83
2023-02-10T13:31:58.878Z,26.23
2023-02-10T13:34:42.025Z,26.97
2023-02-10T13:37:17.105Z,23.13
2023-02-10T13:39:56.700Z,24.60
2023-02-10T13:42:39.874Z,25.03
2023-02-10T13:45:21.836Z,23.43
2023-02-10T13:47:59.893Z,26.80
2023-02-10T13:50:30.901Z,22.90
2023-02-10T13:53:07.208Z,24.23
2023-02-10T13:55:37.251Z,21.53
2023-02-10T13:58:04.011Z,21.87
2023-02-10T14:00:46.597Z,21.37
2023-02-10T14:03:13.389Z,21.60
2023-02-10T14:05:54.063Z,22.83
2023-02-10T14:08:58.791Z,24.33
2023-02-10T14:11:42.611Z,22.20
2023-02-10T14:14:36.025Z,22.87
2023-02-10T14:17:25.483Z,23.63
2023-02-10T14:19:52.992Z,22.33
2023-02-10T14:22:27.340Z,22.57
2023-02-10T14:24:56.151Z,20.83
2023-02-10T14:27:25.211Z,22.53
2023-02-10T14:29:59.770Z,21.50
2023-02-10T14:32:26.611Z,21.63
2023-02-10T14:35:12.930Z,25.37
2023-02-10T14:37:54.163Z,21.57
2023-02-10T14:40:24.454Z,21.63
2023-02-10T14:42:51.879Z,22.80
2023-02-10T14:45:27.590Z,22.67
2023-02-10T14:47:57.921Z,21.60
2023-02-10T14:50:34.946Z,24.00
2023-02-10T14:53:05.390Z,22.40
2023-02-10T14:55:39.573Z,20.87
2023-02-10T14:58:22.639Z,22.17
2023-02-10T15:01:28.682Z,22.60
2023-02-10T15:03:58.452Z,22.97
2023-02-10T15:06:31.106Z,23.57
2023-02-10T15:09:19.331Z,23.23
2023-02-10T15:12:42.512Z,21.67
2023-02-10T15:15:36.431Z,23.13
2023-02-10T15:18:09.158Z,22.40
2023-02-10T15:20:36.113Z,24.90
2023-02-10T15:23:02.980Z,20.87
2023-02-10T15:25:38.989Z,22.50
2023-02-10T15:28:11.325Z,20.30
2023-02-10T15:31:15.187Z,20.83
2023-02-10T15:33:58.335Z,33.03
2023-02-10T15:36:26.023Z,28.23
2023-02-10T15:38:58.205Z,23.40
2023-02-10T15:41:40.026Z,26.17
2023-02-10T15:44:18.616Z,24.03
2023-02-10T15:47:16.445Z,51.77
2023-02-10T15:49:49.487Z,34.63
2023-02-10T15:52:34.400Z,26.83
2023-02-10T15:55:05.393Z,26.03
2023-02-10T15:57:32.391Z,26.50
2023-02-10T15:59:59.309Z,26.10
2023-02-10T16:02:27.085Z,29.37
2023-02-10T16:04:54.061Z,27.10
2023-02-10T16:07:27.789Z,25.93
2023-02-10T16:09:56.132Z,32.70
2023-02-10T16:12:24.601Z,29.47
2023-02-10T16:14:51.450Z,27.20
2023-02-10T16:17:29.605Z,28.93
2023-02-10T16:19:56.390Z,27.37
2023-02-10T16:22:23.265Z,27.90
2023-02-10T16:24:50.153Z,29.40
2023-02-10T16:27:17.189Z,28.10
2023-02-10T16:29:44.621Z,29.30
2023-02-10T16:32:12.190Z,29.07
2023-02-10T16:34:39.510Z,27.53
2023-02-10T16:37:06.509Z,29.47
2023-02-10T16:39:33.330Z,28.37
2023-02-10T16:42:00.219Z,27.93
2023-02-10T16:44:27.137Z,33.23
2023-02-10T16:46:54.068Z,26.03
2023-02-10T16:49:20.968Z,30.37
2023-02-10T16:51:47.987Z,26.40
2023-02-10T16:54:15.018Z,30.60
2023-02-10T16:56:43.895Z,31.63
2023-02-10T16:59:16.974Z,28.53
2023-02-10T17:01:45.473Z,30.00
2023-02-10T17:04:13.089Z,30.13
2023-02-10T17:06:48.290Z,29.27
2023-02-10T17:09:18.651Z,30.07
2023-02-10T17:11:45.520Z,31.93
2023-02-10T17:14:12.527Z,29.90
2023-02-10T17:16:43.359Z,30.73
2023-02-10T17:19:14.576Z,28.60
2023-02-10T17:21:41.904Z,31.47
2023-02-10T17:24:08.799Z,29.93
2023-02-10T17:26:35.583Z,30.03
2023-02-10T17:29:02.561Z,31.33
2023-02-10T17:31:29.517Z,29.40
2023-02-10T17:33:56.564Z,33.00
2023-02-10T17:36:26.471Z,34.27
2023-02-10T17:38:54.974Z,37.37
2023-02-10T17:41:25.486Z,34.87
2023-02-10T17:43:55.314Z,36.13
2023-02-10T17:46:22.534Z,32.13
2023-02-10T17:48:49.501Z,34.17
2023-02-10T17:51:23.331Z,37.23
2023-02-10T17:53:51.737Z,46.03
2023-02-10T17:56:21.473Z,43.00
2023-02-10T17:58:49.196Z,36.53
2023-02-10T18:01:34.466Z,42.33
2023-02-10T18:04:01.924Z,46.93
2023-02-10T18:06:29.571Z,40.13
2023-02-10T18:08:58.157Z,42.60
2023-02-10T18:11:30.025Z,35.60
2023-02-10T18:13:56.840Z,29.23
2023-02-10T18:16:24.357Z,41.97
2023-02-10T18:18:51.588Z,45.97
2023-02-10T18:21:23.563Z,35.97
2023-02-10T18:23:51.363Z,38.40
2023-02-10T18:26:19.737Z,38.47
2023-02-10T18:28:46.573Z,42.53
2023-02-10T18:31:16.220Z,39.33
2023-02-10T18:33:43.963Z,40.13
2023-02-10T18:36:15.273Z,37.47
2023-02-10T18:38:42.351Z,37.60
2023-02-10T18:41:09.707Z,38.47
2023-02-10T18:43:36.566Z,42.27
2023-02-10T18:46:03.553Z,43.43
2023-02-10T18:48:30.478Z,39.07
2023-02-10T18:50:57.414Z,36.57
2023-02-10T18:53:24.207Z,36.37
2023-02-10T18:55:53.343Z,32.77
2023-02-10T18:58:20.468Z,35.47
2023-02-10T19:00:48.193Z,35.87
2023-02-10T19:03:15.120Z,40.37
2023-02-10T19:05:42.062Z,46.70
2023-02-10T19:08:08.930Z,52.03
2023-02-10T19:10:38.223Z,48.70
2023-02-10T19:13:05.366Z,49.47
2023-02-10T19:15:32.193Z,47.80
2023-02-10T19:17:59.274Z,44.23
2023-02-10T19:20:26.402Z,47.97
2023-02-10T19:22:53.232Z,46.03
2023-02-10T19:25:20.056Z,44.67
2023-02-10T19:27:46.929Z,46.30
2023-02-10T19:30:14.083Z,44.20
2023-02-10T19:32:40.960Z,46.03
2023-02-10T19:35:08.102Z,40.00
2023-02-10T19:37:37.972Z,40.00
2023-02-10T19:40:06.874Z,42.87
2023-02-10T19:42:33.824Z,48.07
2023-02-10T19:45:00.820Z,50.17
2023-02-10T19:47:28.936Z,39.27
2023-02-10T19:49:57.704Z,42.63
2023-02-10T19:52:24.756Z,38.43
2023-02-10T19:54:52.070Z,36.97
2023-02-10T19:57:21.614Z,34.20
2023-02-10T19:59:48.515Z,33.37
2023-02-10T20:02:16.922Z,39.10
2023-02-10T20:04:43.785Z,35.47
2023-02-10T20:07:10.583Z,36.13
2023-02-10T20:09:38.309Z,39.87
2023-02-10T20:12:05.391Z,39.47
2023-02-10T20:14:33.624Z,40.43
2023-02-10T20:17:00.873Z,37.03
2023-02-10T20:19:27.835Z,36.17
2023-02-10T20:21:54.762Z,34.27
2023-02-10T20:24:21.629Z,37.50
2023-02-10T20:26:48.783Z,39.90
2023-02-10T20:29:15.593Z,37.93
2023-02-10T20:31:43.205Z,37.07
2023-02-10T20:34:10.459Z,37.07
2023-02-10T20:36:37.422Z,39.30
2023-02-10T20:39:06.879Z,39.80
2023-02-10T20:41:34.591Z,38.27
2023-02-10T20:44:01.619Z,39.93
2023-02-10T20:46:30.435Z,38.80
2023-02-10T20:48:57.629Z,36.57
2023-02-10T20:51:24.879Z,36.80
2023-02-10T20:53:52.160Z,39.60
2023-02-10T20:56:20.202Z,35.87
2023-02-10T20:58:47.190Z,36.70
2023-02-10T21:01:16.430Z,41.30
2023-02-10T21:03:43.893Z,38.93
2023-02-10T21:06:16.837Z,35.20
2023-02-10T21:08:45.510Z,39.93
2023-02-10T21:11:14.999Z,40.50
2023-02-10T21:13:42.025Z,40.47
2023-02-10T21:16:13.013Z,46.80
2023-02-10T21:18:41.098Z,41.50
2023-02-10T21:21:10.938Z,38.77
2023-02-10T21:23:38.658Z,37.70
2023-02-10T21:26:07.027Z,40.67
2023-02-10T21:28:35.994Z,35.50
2023-02-10T21:31:17.564Z,39.97
2023-02-10T21:33:44.436Z,43.20
2023-02-10T21:36:26.604Z,43.60
2023-02-10T21:38:57.330Z,43.23
2023-02-10T21:41:44.459Z,43.60
2023-02-10T21:44:21.694Z,41.67
2023-02-10T21:46:58.346Z,42.60
2023-02-10T21:49:27.777Z,44.63
2023-02-10T21:51:55.754Z,43.87
2023-02-10T21:54:24.970Z,39.63
2023-02-10T21:56:52.342Z,38.57
2023-02-10T21:59:19.801Z,43.40
2023-02-10T22:01:47.213Z,42.77
2023-02-10T22:04:14.335Z,38.17
2023-02-10T22:06:44.232Z,36.40
2023-02-10T22:09:16.388Z,40.03
2023-02-10T22:11:43.412Z,37.50
2023-02-10T22:14:12.556Z,40.53
2023-02-10T22:16:39.645Z,42.23
2023-02-10T22:19:07.062Z,39.43
2023-02-10T22:21:33.949Z,41.77
2023-02-10T22:24:00.807Z,37.60
2023-02-10T22:26:29.100Z,41.43
2023-02-10T22:28:58.390Z,39.63
2023-02-10T22:31:29.203Z,42.33
2023-02-10T22:33:59.706Z,37.80
2023-02-10T22:36:27.678Z,43.87
2023-02-10T22:38:54.718Z,40.33
2023-02-10T22:41:25.062Z,42.47
2023-02-10T22:43:52.627Z,44.27
2023-02-10T22:46:20.602Z,41.07
2023-02-10T22:48:52.294Z,40.47
2023-02-10T22:51:28.692Z,41.67
2023-02-10T22:54:07.164Z,41.03
2023-02-10T22:56:37.534Z,44.07
2023-02-10T22:59:05.772Z,43.60
2023-02-10T23:01:40.340Z,45.13
2023-02-10T23:04:09.584Z,46.43
2023-02-10T23:06:36.979Z,45.67
2023-02-10T23:09:03.934Z,47.23
2023-02-10T23:11:34.102Z,42.17
2023-02-10T23:14:01.589Z,41.70
2023-02-10T23:16:29.105Z,46.67
2023-02-10T23:18:57.009Z,45.83
2023-02-10T23:21:25.970Z,44.40
2023-02-10T23:23:53.043Z,45.70
2023-02-10T23:26:29.185Z,44.80
2023-02-10T23:28:59.989Z,45.47
2023-02-10T23:31:28.129Z,44.47
2023-02-10T23:33:56.147Z,44.50
2023-02-10T23:36:24.119Z,44.07
2023-02-10T23:38:51.811Z,43.47
2023-02-10T23:41:19.084Z,42.10
2023-02-10T23:43:46.144Z,45.67
2023-02-10T23:46:13.524Z,49.30
2023-02-10T23:48:40.410Z,44.77
2023-02-10T23:51:16.564Z,46.30
2023-02-10T23:53:43.387Z,40.97
2023-02-10T23:56:13.650Z,44.60
2023-02-10T23:58:40.702Z,47.27
